sensor_id;sensor_type;location;lat;lon;timestamp;P1;durP1;ratioP1;P2;durP2;ratioP2
31210;SDS011;17836;50.948;3.946;2024-01-11T00:01:57;33.85;;;18.52;;
31210;SDS011;17836;50.948;3.946;2024-01-11T00:04:24;34.88;;;19.25;;
31210;SDS011;17836;50.948;3.946;2024-01-11T00:06:52;40.30;;;20.20;;
31210;SDS011;17836;50.948;3.946;2024-01-11T00:09:17;36.90;;;19.98;;
31210;SDS011;17836;50.948;3.946;2024-01-11T00:11:45;36.72;;;19.08;;
31210;SDS011;17836;50.948;3.946;2024-01-11T00:14:10;36.97;;;20.80;;
31210;SDS011;17836;50.948;3.946;2024-01-11T00:16:36;35.35;;;19.58;;
31210;SDS011;17836;50.948;3.946;2024-01-11T00:19:03;40.38;;;20.27;;
31210;SDS011;17836;50.948;3.946;2024-01-11T00:21:28;38.67;;;18.55;;
31210;SDS011;17836;50.948;3.946;2024-01-11T00:23:54;42.72;;;20.55;;
31210;SDS011;17836;50.948;3.946;2024-01-11T00:26:21;37.97;;;19.33;;
31210;SDS011;17836;50.948;3.946;2024-01-11T00:28:49;36.72;;;19.33;;
31210;SDS011;17836;50.948;3.946;2024-01-11T00:31:14;35.20;;;18.73;;
31210;SDS011;17836;50.948;3.946;2024-01-11T00:33:39;40.67;;;20.17;;
31210;SDS011;17836;50.948;3.946;2024-01-11T00:36:04;35.38;;;18.80;;
31210;SDS011;17836;50.948;3.946;2024-01-11T00:38:30;34.20;;;18.83;;
31210;SDS011;17836;50.948;3.946;2024-01-11T00:40:55;36.53;;;18.50;;
31210;SDS011;17836;50.948;3.946;2024-01-11T00:43:20;41.20;;;19.50;;
31210;SDS011;17836;50.948;3.946;2024-01-11T00:45:46;41.58;;;21.23;;
31210;SDS011;17836;50.948;3.946;2024-01-11T00:48:11;34.47;;;19.15;;
31210;SDS011;17836;50.948;3.946;2024-01-11T00:50:37;40.15;;;20.90;;
31210;SDS011;17836;50.948;3.946;2024-01-11T00:53:02;36.35;;;18.23;;
31210;SDS011;17836;50.948;3.946;2024-01-11T00:55:28;40.45;;;20.48;;
31210;SDS011;17836;50.948;3.946;2024-01-11T00:57:53;38.78;;;18.90;;
31210;SDS011;17836;50.948;3.946;2024-01-11T01:00:18;34.05;;;17.27;;
31210;SDS011;17836;50.948;3.946;2024-01-11T01:02:44;36.15;;;19.23;;
31210;SDS011;17836;50.948;3.946;2024-01-11T01:05:09;34.97;;;18.17;;
31210;SDS011;17836;50.948;3.946;2024-01-11T01:07:35;32.55;;;18.95;;
31210;SDS011;17836;50.948;3.946;2024-01-11T01:10:00;34.45;;;18.15;;
31210;SDS011;17836;50.948;3.946;2024-01-11T01:12:26;32.80;;;19.33;;
31210;SDS011;17836;50.948;3.946;2024-01-11T01:14:52;34.88;;;19.88;;
31210;SDS011;17836;50.948;3.946;2024-01-11T01:20:23;35.80;;;20.75;;
31210;SDS011;17836;50.948;3.946;2024-01-11T01:22:51;44.42;;;20.48;;
31210;SDS011;17836;50.948;3.946;2024-01-11T01:25:16;42.92;;;20.88;;
31210;SDS011;17836;50.948;3.946;2024-01-11T01:27:42;35.67;;;19.38;;
31210;SDS011;17836;50.948;3.946;2024-01-11T01:30:09;40.50;;;21.67;;
31210;SDS011;17836;50.948;3.946;2024-01-11T01:32:34;42.47;;;19.92;;
31210;SDS011;17836;50.948;3.946;2024-01-11T01:35:00;36.72;;;19.65;;
31210;SDS011;17836;50.948;3.946;2024-01-11T01:37:25;44.80;;;21.25;;
31210;SDS011;17836;50.948;3.946;2024-01-11T01:39:53;41.80;;;20.90;;
31210;SDS011;17836;50.948;3.946;2024-01-11T01:42:19;44.85;;;22.38;;
31210;SDS011;17836;50.948;3.946;2024-01-11T01:44:45;40.10;;;20.95;;
31210;SDS011;17836;50.948;3.946;2024-01-11T01:47:10;40.00;;;21.73;;
31210;SDS011;17836;50.948;3.946;2024-01-11T01:49:36;39.88;;;20.92;;
31210;SDS011;17836;50.948;3.946;2024-01-11T01:52:02;43.88;;;22.85;;
31210;SDS011;17836;50.948;3.946;2024-01-11T01:54:30;39.13;;;21.48;;
31210;SDS011;17836;50.948;3.946;2024-01-11T01:56:56;45.45;;;22.38;;
31210;SDS011;17836;50.948;3.946;2024-01-11T01:59:22;36.45;;;19.35;;
31210;SDS011;17836;50.948;3.946;2024-01-11T02:01:48;36.70;;;19.75;;
31210;SDS011;17836;50.948;3.946;2024-01-11T02:04:13;35.67;;;21.08;;
31210;SDS011;17836;50.948;3.946;2024-01-11T02:06:42;41.08;;;21.60;;
31210;SDS011;17836;50.948;3.946;2024-01-11T02:09:11;44.60;;;21.50;;
31210;SDS011;17836;50.948;3.946;2024-01-11T02:11:38;43.90;;;21.08;;
31210;SDS011;17836;50.948;3.946;2024-01-11T02:14:04;43.70;;;20.23;;
31210;SDS011;17836;50.948;3.946;2024-01-11T02:18:59;44.85;;;22.15;;
31210;SDS011;17836;50.948;3.946;2024-01-11T02:21:24;41.50;;;20.52;;
31210;SDS011;17836;50.948;3.946;2024-01-11T02:23:58;41.58;;;20.30;;
31210;SDS011;17836;50.948;3.946;2024-01-11T02:26:25;38.90;;;19.63;;
31210;SDS011;17836;50.948;3.946;2024-01-11T02:28:51;38.30;;;19.67;;
31210;SDS011;17836;50.948;3.946;2024-01-11T02:31:16;39.92;;;20.02;;
31210;SDS011;17836;50.948;3.946;2024-01-11T02:33:44;44.47;;;22.88;;
31210;SDS011;17836;50.948;3.946;2024-01-11T02:36:09;38.20;;;20.38;;
31210;SDS011;17836;50.948;3.946;2024-01-11T02:38:35;41.65;;;21.00;;
31210;SDS011;17836;50.948;3.946;2024-01-11T02:41:00;39.75;;;21.40;;
31210;SDS011;17836;50.948;3.946;2024-01-11T02:43:26;37.53;;;20.50;;
31210;SDS011;17836;50.948;3.946;2024-01-11T02:45:54;42.92;;;20.65;;
31210;SDS011;17836;50.948;3.946;2024-01-11T02:48:20;36.92;;;20.95;;
31210;SDS011;17836;50.948;3.946;2024-01-11T02:50:45;35.03;;;20.45;;
31210;SDS011;17836;50.948;3.946;2024-01-11T02:53:11;37.25;;;19.55;;
31210;SDS011;17836;50.948;3.946;2024-01-11T02:55:36;45.95;;;20.45;;
31210;SDS011;17836;50.948;3.946;2024-01-11T02:58:03;38.58;;;21.13;;
31210;SDS011;17836;50.948;3.946;2024-01-11T03:00:29;38.85;;;20.85;;
31210;SDS011;17836;50.948;3.946;2024-01-11T03:02:54;42.17;;;21.27;;
31210;SDS011;17836;50.948;3.946;2024-01-11T03:05:19;37.10;;;20.77;;
31210;SDS011;17836;50.948;3.946;2024-01-11T03:07:45;34.63;;;19.33;;
31210;SDS011;17836;50.948;3.946;2024-01-11T03:10:12;37.80;;;21.23;;
31210;SDS011;17836;50.948;3.946;2024-01-11T03:12:39;38.40;;;20.30;;
31210;SDS011;17836;50.948;3.946;2024-01-11T03:15:04;41.65;;;21.08;;
31210;SDS011;17836;50.948;3.946;2024-01-11T03:17:30;37.67;;;20.58;;
31210;SDS011;17836;50.948;3.946;2024-01-11T03:19:55;42.65;;;21.05;;
31210;SDS011;17836;50.948;3.946;2024-01-11T03:22:20;37.30;;;20.15;;
31210;SDS011;17836;50.948;3.946;2024-01-11T03:24:46;44.03;;;21.13;;
31210;SDS011;17836;50.948;3.946;2024-01-11T03:27:11;43.22;;;22.30;;
31210;SDS011;17836;50.948;3.946;2024-01-11T03:29:36;45.05;;;21.15;;
31210;SDS011;17836;50.948;3.946;2024-01-11T03:32:04;38.67;;;20.50;;
31210;SDS011;17836;50.948;3.946;2024-01-11T03:34:29;39.90;;;21.88;;
31210;SDS011;17836;50.948;3.946;2024-01-11T03:36:54;41.83;;;21.58;;
31210;SDS011;17836;50.948;3.946;2024-01-11T03:39:20;41.38;;;21.98;;
31210;SDS011;17836;50.948;3.946;2024-01-11T03:41:45;39.60;;;20.15;;
31210;SDS011;17836;50.948;3.946;2024-01-11T03:44:11;38.42;;;20.75;;
31210;SDS011;17836;50.948;3.946;2024-01-11T03:46:39;40.38;;;20.80;;
31210;SDS011;17836;50.948;3.946;2024-01-11T03:49:04;39.25;;;20.58;;
31210;SDS011;17836;50.948;3.946;2024-01-11T03:51:30;33.58;;;18.02;;
31210;SDS011;17836;50.948;3.946;2024-01-11T03:53:55;38.95;;;19.92;;
31210;SDS011;17836;50.948;3.946;2024-01-11T03:56:20;40.97;;;21.05;;
31210;SDS011;17836;50.948;3.946;2024-01-11T03:58:45;38.28;;;20.23;;
31210;SDS011;17836;50.948;3.946;2024-01-11T04:01:13;33.65;;;19.02;;
31210;SDS011;17836;50.948;3.946;2024-01-11T04:03:38;36.40;;;18.48;;
31210;SDS011;17836;50.948;3.946;2024-01-11T04:06:04;38.33;;;20.80;;
31210;SDS011;17836;50.948;3.946;2024-01-11T04:08:29;35.95;;;20.17;;
31210;SDS011;17836;50.948;3.946;2024-01-11T04:10:56;40.85;;;20.27;;
31210;SDS011;17836;50.948;3.946;2024-01-11T04:13:21;37.03;;;18.90;;
31210;SDS011;17836;50.948;3.946;2024-01-11T04:15:47;35.05;;;19.48;;
31210;SDS011;17836;50.948;3.946;2024-01-11T04:18:12;35.90;;;19.95;;
31210;SDS011;17836;50.948;3.946;2024-01-11T04:20:37;38.47;;;19.35;;
31210;SDS011;17836;50.948;3.946;2024-01-11T04:23:03;38.25;;;19.77;;
31210;SDS011;17836;50.948;3.946;2024-01-11T04:25:31;36.28;;;19.65;;
31210;SDS011;17836;50.948;3.946;2024-01-11T04:27:56;37.75;;;19.50;;
31210;SDS011;17836;50.948;3.946;2024-01-11T04:30:21;37.75;;;20.50;;
31210;SDS011;17836;50.948;3.946;2024-01-11T04:32:47;36.45;;;20.67;;
31210;SDS011;17836;50.948;3.946;2024-01-11T04:35:12;34.35;;;19.42;;
31210;SDS011;17836;50.948;3.946;2024-01-11T04:37:37;34.15;;;19.38;;
31210;SDS011;17836;50.948;3.946;2024-01-11T04:40:03;42.95;;;21.13;;
31210;SDS011;17836;50.948;3.946;2024-01-11T04:42:28;35.28;;;19.15;;
31210;SDS011;17836;50.948;3.946;2024-01-11T04:44:56;42.45;;;21.52;;
31210;SDS011;17836;50.948;3.946;2024-01-11T04:47:21;34.47;;;19.40;;
31210;SDS011;17836;50.948;3.946;2024-01-11T04:49:49;33.92;;;19.33;;
31210;SDS011;17836;50.948;3.946;2024-01-11T04:52:14;38.35;;;21.05;;
31210;SDS011;17836;50.948;3.946;2024-01-11T04:54:39;39.70;;;20.02;;
31210;SDS011;17836;50.948;3.946;2024-01-11T04:57:07;41.08;;;21.73;;
31210;SDS011;17836;50.948;3.946;2024-01-11T04:59:32;34.70;;;19.08;;
31210;SDS011;17836;50.948;3.946;2024-01-11T05:01:57;44.17;;;21.77;;
31210;SDS011;17836;50.948;3.946;2024-01-11T05:04:23;41.03;;;19.95;;
31210;SDS011;17836;50.948;3.946;2024-01-11T05:06:48;36.03;;;21.30;;
31210;SDS011;17836;50.948;3.946;2024-01-11T05:09:13;37.90;;;20.15;;
31210;SDS011;17836;50.948;3.946;2024-01-11T05:11:39;36.53;;;20.48;;
31210;SDS011;17836;50.948;3.946;2024-01-11T05:14:05;38.70;;;21.20;;
31210;SDS011;17836;50.948;3.946;2024-01-11T05:16:30;43.28;;;22.02;;
31210;SDS011;17836;50.948;3.946;2024-01-11T05:18:56;41.40;;;21.13;;
31210;SDS011;17836;50.948;3.946;2024-01-11T05:21:25;41.47;;;23.55;;
31210;SDS011;17836;50.948;3.946;2024-01-11T05:23:51;48.65;;;22.33;;
31210;SDS011;17836;50.948;3.946;2024-01-11T05:26:18;41.83;;;22.60;;
31210;SDS011;17836;50.948;3.946;2024-01-11T05:28:43;34.08;;;21.52;;
31210;SDS011;17836;50.948;3.946;2024-01-11T05:31:09;38.88;;;22.55;;
31210;SDS011;17836;50.948;3.946;2024-01-11T05:33:35;39.78;;;21.35;;
31210;SDS011;17836;50.948;3.946;2024-01-11T05:36:01;39.80;;;21.30;;
31210;SDS011;17836;50.948;3.946;2024-01-11T05:38:26;38.50;;;21.02;;
31210;SDS011;17836;50.948;3.946;2024-01-11T05:40:51;37.28;;;20.25;;
31210;SDS011;17836;50.948;3.946;2024-01-11T05:43:16;44.38;;;22.25;;
31210;SDS011;17836;50.948;3.946;2024-01-11T05:45:42;42.75;;;22.63;;
31210;SDS011;17836;50.948;3.946;2024-01-11T05:48:07;46.28;;;22.52;;
31210;SDS011;17836;50.948;3.946;2024-01-11T05:50:32;41.85;;;22.38;;
31210;SDS011;17836;50.948;3.946;2024-01-11T05:53:00;43.95;;;22.02;;
31210;SDS011;17836;50.948;3.946;2024-01-11T05:55:25;42.88;;;22.40;;
31210;SDS011;17836;50.948;3.946;2024-01-11T05:57:50;44.70;;;23.70;;
31210;SDS011;17836;50.948;3.946;2024-01-11T06:00:16;39.20;;;21.45;;
31210;SDS011;17836;50.948;3.946;2024-01-11T06:02:41;37.85;;;21.52;;
31210;SDS011;17836;50.948;3.946;2024-01-11T06:05:10;42.70;;;23.48;;
31210;SDS011;17836;50.948;3.946;2024-01-11T06:07:35;40.45;;;23.48;;
31210;SDS011;17836;50.948;3.946;2024-01-11T06:10:03;42.13;;;23.38;;
31210;SDS011;17836;50.948;3.946;2024-01-11T06:12:33;43.67;;;22.13;;
31210;SDS011;17836;50.948;3.946;2024-01-11T06:15:01;39.55;;;22.27;;
31210;SDS011;17836;50.948;3.946;2024-01-11T06:17:26;46.08;;;22.35;;
31210;SDS011;17836;50.948;3.946;2024-01-11T06:19:51;41.25;;;22.77;;
31210;SDS011;17836;50.948;3.946;2024-01-11T06:22:17;42.40;;;23.33;;
31210;SDS011;17836;50.948;3.946;2024-01-11T06:24:43;40.95;;;22.20;;
31210;SDS011;17836;50.948;3.946;2024-01-11T06:27:08;43.83;;;22.35;;
31210;SDS011;17836;50.948;3.946;2024-01-11T06:29:33;49.08;;;22.83;;
31210;SDS011;17836;50.948;3.946;2024-01-11T06:31:58;41.97;;;22.40;;
31210;SDS011;17836;50.948;3.946;2024-01-11T06:34:24;47.92;;;23.77;;
31210;SDS011;17836;50.948;3.946;2024-01-11T06:36:49;42.65;;;22.77;;
31210;SDS011;17836;50.948;3.946;2024-01-11T06:39:14;47.78;;;24.45;;
31210;SDS011;17836;50.948;3.946;2024-01-11T06:41:42;43.95;;;22.98;;
31210;SDS011;17836;50.948;3.946;2024-01-11T06:44:07;40.60;;;22.40;;
31210;SDS011;17836;50.948;3.946;2024-01-11T06:46:32;38.35;;;22.00;;
31210;SDS011;17836;50.948;3.946;2024-01-11T06:48:58;40.70;;;21.50;;
31210;SDS011;17836;50.948;3.946;2024-01-11T06:51:23;47.55;;;23.58;;
31210;SDS011;17836;50.948;3.946;2024-01-11T06:53:49;39.72;;;21.38;;
31210;SDS011;17836;50.948;3.946;2024-01-11T06:56:15;40.08;;;22.15;;
31210;SDS011;17836;50.948;3.946;2024-01-11T06:58:40;39.67;;;22.52;;
31210;SDS011;17836;50.948;3.946;2024-01-11T07:01:05;40.67;;;21.92;;
31210;SDS011;17836;50.948;3.946;2024-01-11T07:03:31;47.95;;;21.85;;
31210;SDS011;17836;50.948;3.946;2024-01-11T07:05:58;38.35;;;21.23;;
31210;SDS011;17836;50.948;3.946;2024-01-11T07:08:23;41.33;;;21.73;;
31210;SDS011;17836;50.948;3.946;2024-01-11T07:10:51;39.85;;;22.15;;
31210;SDS011;17836;50.948;3.946;2024-01-11T07:13:25;44.17;;;21.98;;
31210;SDS011;17836;50.948;3.946;2024-01-11T07:15:53;41.95;;;21.33;;
31210;SDS011;17836;50.948;3.946;2024-01-11T07:18:20;45.17;;;24.00;;
31210;SDS011;17836;50.948;3.946;2024-01-11T07:20:45;47.63;;;24.88;;
31210;SDS011;17836;50.948;3.946;2024-01-11T07:23:11;47.80;;;25.23;;
31210;SDS011;17836;50.948;3.946;2024-01-11T07:25:36;47.22;;;24.65;;
31210;SDS011;17836;50.948;3.946;2024-01-11T07:28:01;49.92;;;26.33;;
31210;SDS011;17836;50.948;3.946;2024-01-11T07:30:29;49.17;;;24.67;;
31210;SDS011;17836;50.948;3.946;2024-01-11T07:32:54;39.00;;;22.15;;
31210;SDS011;17836;50.948;3.946;2024-01-11T07:35:21;44.33;;;23.77;;
31210;SDS011;17836;50.948;3.946;2024-01-11T07:37:47;38.67;;;21.42;;
31210;SDS011;17836;50.948;3.946;2024-01-11T07:40:12;42.08;;;22.35;;
31210;SDS011;17836;50.948;3.946;2024-01-11T07:42:38;41.75;;;24.48;;
31210;SDS011;17836;50.948;3.946;2024-01-11T07:45:04;44.50;;;24.38;;
31210;SDS011;17836;50.948;3.946;2024-01-11T07:47:30;47.30;;;24.48;;
31210;SDS011;17836;50.948;3.946;2024-01-11T07:49:57;45.35;;;23.60;;
31210;SDS011;17836;50.948;3.946;2024-01-11T07:52:23;46.22;;;26.10;;
31210;SDS011;17836;50.948;3.946;2024-01-11T07:54:48;50.22;;;25.17;;
31210;SDS011;17836;50.948;3.946;2024-01-11T07:57:14;44.85;;;26.15;;
31210;SDS011;17836;50.948;3.946;2024-01-11T07:59:39;46.47;;;25.80;;
31210;SDS011;17836;50.948;3.946;2024-01-11T08:02:04;45.95;;;25.67;;
31210;SDS011;17836;50.948;3.946;2024-01-11T08:04:32;46.92;;;26.25;;
31210;SDS011;17836;50.948;3.946;2024-01-11T08:07:00;47.78;;;25.88;;
31210;SDS011;17836;50.948;3.946;2024-01-11T08:09:26;54.97;;;30.42;;
31210;SDS011;17836;50.948;3.946;2024-01-11T08:11:52;54.03;;;29.30;;
31210;SDS011;17836;50.948;3.946;2024-01-11T08:14:19;54.85;;;28.02;;
31210;SDS011;17836;50.948;3.946;2024-01-11T08:16:47;53.85;;;28.00;;
31210;SDS011;17836;50.948;3.946;2024-01-11T08:19:12;54.17;;;26.85;;
31210;SDS011;17836;50.948;3.946;2024-01-11T08:21:41;50.05;;;27.80;;
31210;SDS011;17836;50.948;3.946;2024-01-11T08:24:09;53.83;;;27.88;;
31210;SDS011;17836;50.948;3.946;2024-01-11T08:26:34;48.17;;;26.92;;
31210;SDS011;17836;50.948;3.946;2024-01-11T08:28:59;54.42;;;26.45;;
31210;SDS011;17836;50.948;3.946;2024-01-11T08:31:29;55.57;;;27.37;;
31210;SDS011;17836;50.948;3.946;2024-01-11T08:33:55;47.40;;;26.15;;
31210;SDS011;17836;50.948;3.946;2024-01-11T08:36:22;50.03;;;27.98;;
31210;SDS011;17836;50.948;3.946;2024-01-11T08:38:47;49.95;;;27.17;;
31210;SDS011;17836;50.948;3.946;2024-01-11T08:41:14;48.15;;;28.10;;
31210;SDS011;17836;50.948;3.946;2024-01-11T08:43:40;60.00;;;27.98;;
31210;SDS011;17836;50.948;3.946;2024-01-11T08:46:05;55.65;;;27.98;;
31210;SDS011;17836;50.948;3.946;2024-01-11T08:48:32;62.33;;;28.15;;
31210;SDS011;17836;50.948;3.946;2024-01-11T08:50:57;61.85;;;29.60;;
31210;SDS011;17836;50.948;3.946;2024-01-11T08:53:23;54.63;;;30.08;;
31210;SDS011;17836;50.948;3.946;2024-01-11T08:55:48;54.65;;;28.02;;
31210;SDS011;17836;50.948;3.946;2024-01-11T08:58:16;53.28;;;28.95;;
31210;SDS011;17836;50.948;3.946;2024-01-11T09:00:41;50.33;;;27.35;;
31210;SDS011;17836;50.948;3.946;2024-01-11T09:03:06;53.80;;;28.77;;
31210;SDS011;17836;50.948;3.946;2024-01-11T09:05:34;54.58;;;30.80;;
31210;SDS011;17836;50.948;3.946;2024-01-11T09:07:59;205.80;;;86.68;;
31210;SDS011;17836;50.948;3.946;2024-01-11T09:10:24;86.35;;;41.22;;
31210;SDS011;17836;50.948;3.946;2024-01-11T09:12:50;61.22;;;30.83;;
31210;SDS011;17836;50.948;3.946;2024-01-11T09:15:16;53.60;;;29.25;;
31210;SDS011;17836;50.948;3.946;2024-01-11T09:17:41;53.05;;;28.60;;
31210;SDS011;17836;50.948;3.946;2024-01-11T09:20:06;53.03;;;27.20;;
31210;SDS011;17836;50.948;3.946;2024-01-11T09:22:32;53.85;;;26.50;;
31210;SDS011;17836;50.948;3.946;2024-01-11T09:24:57;57.40;;;27.17;;
31210;SDS011;17836;50.948;3.946;2024-01-11T09:27:22;50.83;;;27.85;;
31210;SDS011;17836;50.948;3.946;2024-01-11T09:29:48;56.85;;;29.63;;
31210;SDS011;17836;50.948;3.946;2024-01-11T09:32:13;46.97;;;25.42;;
31210;SDS011;17836;50.948;3.946;2024-01-11T09:34:38;47.60;;;24.40;;
31210;SDS011;17836;50.948;3.946;2024-01-11T09:37:04;52.30;;;25.05;;
31210;SDS011;17836;50.948;3.946;2024-01-11T09:39:32;51.25;;;24.70;;
31210;SDS011;17836;50.948;3.946;2024-01-11T09:42:06;48.65;;;25.73;;
31210;SDS011;17836;50.948;3.946;2024-01-11T09:44:32;48.30;;;25.67;;
31210;SDS011;17836;50.948;3.946;2024-01-11T09:47:01;49.00;;;25.90;;
31210;SDS011;17836;50.948;3.946;2024-01-11T09:49:27;48.47;;;24.25;;
31210;SDS011;17836;50.948;3.946;2024-01-11T09:51:53;49.53;;;25.75;;
31210;SDS011;17836;50.948;3.946;2024-01-11T09:54:21;50.42;;;26.55;;
31210;SDS011;17836;50.948;3.946;2024-01-11T09:56:47;42.42;;;23.45;;
31210;SDS011;17836;50.948;3.946;2024-01-11T09:59:14;52.50;;;24.52;;
31210;SDS011;17836;50.948;3.946;2024-01-11T10:01:42;47.53;;;24.63;;
31210;SDS011;17836;50.948;3.946;2024-01-11T10:04:08;49.25;;;25.30;;
31210;SDS011;17836;50.948;3.946;2024-01-11T10:06:34;50.08;;;24.52;;
31210;SDS011;17836;50.948;3.946;2024-01-11T10:09:03;49.22;;;25.08;;
31210;SDS011;17836;50.948;3.946;2024-01-11T10:11:28;56.20;;;25.60;;
31210;SDS011;17836;50.948;3.946;2024-01-11T10:13:57;48.78;;;23.75;;
31210;SDS011;17836;50.948;3.946;2024-01-11T10:16:27;46.38;;;24.08;;
31210;SDS011;17836;50.948;3.946;2024-01-11T10:18:57;50.50;;;25.23;;
31210;SDS011;17836;50.948;3.946;2024-01-11T10:21:24;45.17;;;24.27;;
31210;SDS011;17836;50.948;3.946;2024-01-11T10:23:50;49.58;;;26.67;;
31210;SDS011;17836;50.948;3.946;2024-01-11T10:26:17;41.70;;;23.02;;
31210;SDS011;17836;50.948;3.946;2024-01-11T10:28:46;54.42;;;23.60;;
31210;SDS011;17836;50.948;3.946;2024-01-11T10:31:14;51.97;;;26.13;;
31210;SDS011;17836;50.948;3.946;2024-01-11T10:33:43;45.25;;;23.73;;
31210;SDS011;17836;50.948;3.946;2024-01-11T10:36:08;46.15;;;25.75;;
31210;SDS011;17836;50.948;3.946;2024-01-11T10:38:35;44.85;;;24.15;;
31210;SDS011;17836;50.948;3.946;2024-01-11T10:41:01;48.15;;;24.83;;
31210;SDS011;17836;50.948;3.946;2024-01-11T10:43:29;45.75;;;25.13;;
31210;SDS011;17836;50.948;3.946;2024-01-11T10:45:56;48.10;;;25.35;;
31210;SDS011;17836;50.948;3.946;2024-01-11T10:48:24;48.10;;;24.85;;
31210;SDS011;17836;50.948;3.946;2024-01-11T10:50:54;45.30;;;24.52;;
31210;SDS011;17836;50.948;3.946;2024-01-11T10:55:53;49.78;;;25.65;;
31210;SDS011;17836;50.948;3.946;2024-01-11T10:58:20;41.85;;;24.52;;
31210;SDS011;17836;50.948;3.946;2024-01-11T11:00:46;41.80;;;24.30;;
31210;SDS011;17836;50.948;3.946;2024-01-11T11:03:14;45.72;;;23.65;;
31210;SDS011;17836;50.948;3.946;2024-01-11T11:05:40;42.00;;;24.17;;
31210;SDS011;17836;50.948;3.946;2024-01-11T11:08:08;39.40;;;21.73;;
31210;SDS011;17836;50.948;3.946;2024-01-11T11:10:34;39.20;;;23.20;;
31210;SDS011;17836;50.948;3.946;2024-01-11T11:13:00;42.15;;;24.25;;
31210;SDS011;17836;50.948;3.946;2024-01-11T11:15:30;42.42;;;22.67;;
31210;SDS011;17836;50.948;3.946;2024-01-11T11:17:57;44.35;;;24.45;;
31210;SDS011;17836;50.948;3.946;2024-01-11T11:20:22;38.17;;;22.85;;
31210;SDS011;17836;50.948;3.946;2024-01-11T11:22:48;44.58;;;23.98;;
31210;SDS011;17836;50.948;3.946;2024-01-11T11:25:26;41.95;;;23.08;;
31210;SDS011;17836;50.948;3.946;2024-01-11T11:27:53;43.40;;;24.17;;
31210;SDS011;17836;50.948;3.946;2024-01-11T11:30:19;36.95;;;21.88;;
31210;SDS011;17836;50.948;3.946;2024-01-11T11:32:46;39.55;;;21.90;;
31210;SDS011;17836;50.948;3.946;2024-01-11T11:35:12;41.50;;;23.05;;
31210;SDS011;17836;50.948;3.946;2024-01-11T11:37:38;35.70;;;21.27;;
31210;SDS011;17836;50.948;3.946;2024-01-11T11:40:04;42.50;;;22.38;;
31210;SDS011;17836;50.948;3.946;2024-01-11T11:42:35;39.72;;;21.98;;
31210;SDS011;17836;50.948;3.946;2024-01-11T11:45:01;40.65;;;22.45;;
31210;SDS011;17836;50.948;3.946;2024-01-11T11:47:32;41.08;;;21.85;;
31210;SDS011;17836;50.948;3.946;2024-01-11T11:52:30;42.03;;;22.50;;
31210;SDS011;17836;50.948;3.946;2024-01-11T11:54:56;36.20;;;20.35;;
31210;SDS011;17836;50.948;3.946;2024-01-11T11:57:22;36.45;;;20.48;;
31210;SDS011;17836;50.948;3.946;2024-01-11T11:59:48;37.10;;;20.60;;
31210;SDS011;17836;50.948;3.946;2024-01-11T12:02:15;35.63;;;20.52;;
31210;SDS011;17836;50.948;3.946;2024-01-11T12:04:45;38.55;;;21.15;;
31210;SDS011;17836;50.948;3.946;2024-01-11T12:07:11;39.00;;;20.75;;
31210;SDS011;17836;50.948;3.946;2024-01-11T12:09:38;37.85;;;20.60;;
31210;SDS011;17836;50.948;3.946;2024-01-11T12:12:03;41.95;;;22.88;;
31210;SDS011;17836;50.948;3.946;2024-01-11T12:14:29;33.38;;;19.42;;
31210;SDS011;17836;50.948;3.946;2024-01-11T12:16:58;35.13;;;20.65;;
31210;SDS011;17836;50.948;3.946;2024-01-11T12:19:27;40.70;;;21.75;;
31210;SDS011;17836;50.948;3.946;2024-01-11T12:21:52;38.45;;;21.42;;
31210;SDS011;17836;50.948;3.946;2024-01-11T12:24:20;32.47;;;20.33;;
31210;SDS011;17836;50.948;3.946;2024-01-11T12:26:48;39.55;;;20.15;;
31210;SDS011;17836;50.948;3.946;2024-01-11T12:29:19;38.30;;;20.00;;
31210;SDS011;17836;50.948;3.946;2024-01-11T12:31:44;35.88;;;20.63;;
31210;SDS011;17836;50.948;3.946;2024-01-11T12:34:10;34.65;;;20.33;;
31210;SDS011;17836;50.948;3.946;2024-01-11T12:36:39;38.55;;;19.98;;
31210;SDS011;17836;50.948;3.946;2024-01-11T12:39:04;35.20;;;21.85;;
31210;SDS011;17836;50.948;3.946;2024-01-11T12:41:31;30.98;;;19.48;;
31210;SDS011;17836;50.948;3.946;2024-01-11T12:43:57;32.47;;;18.75;;
31210;SDS011;17836;50.948;3.946;2024-01-11T12:46:22;32.78;;;20.05;;
31210;SDS011;17836;50.948;3.946;2024-01-11T12:48:48;31.33;;;19.00;;
31210;SDS011;17836;50.948;3.946;2024-01-11T12:51:15;38.08;;;20.90;;
31210;SDS011;17836;50.948;3.946;2024-01-11T12:53:40;32.63;;;20.05;;
31210;SDS011;17836;50.948;3.946;2024-01-11T12:56:06;32.25;;;20.05;;
31210;SDS011;17836;50.948;3.946;2024-01-11T12:58:38;35.05;;;19.75;;
31210;SDS011;17836;50.948;3.946;2024-01-11T13:01:07;35.97;;;18.77;;
31210;SDS011;17836;50.948;3.946;2024-01-11T13:03:33;36.60;;;18.50;;
31210;SDS011;17836;50.948;3.946;2024-01-11T13:05:58;31.55;;;19.63;;
31210;SDS011;17836;50.948;3.946;2024-01-11T13:08:24;32.22;;;19.05;;
31210;SDS011;17836;50.948;3.946;2024-01-11T13:10:50;37.47;;;21.17;;
31210;SDS011;17836;50.948;3.946;2024-01-11T13:13:17;37.35;;;18.90;;
31210;SDS011;17836;50.948;3.946;2024-01-11T13:15:43;36.95;;;20.33;;
31210;SDS011;17836;50.948;3.946;2024-01-11T13:18:09;30.30;;;18.33;;
31210;SDS011;17836;50.948;3.946;2024-01-11T13:20:35;33.58;;;19.23;;
31210;SDS011;17836;50.948;3.946;2024-01-11T13:25:44;38.22;;;20.08;;
31210;SDS011;17836;50.948;3.946;2024-01-11T13:28:09;31.35;;;19.75;;
31210;SDS011;17836;50.948;3.946;2024-01-11T13:30:37;27.58;;;18.50;;
31210;SDS011;17836;50.948;3.946;2024-01-11T13:33:05;33.80;;;18.77;;
31210;SDS011;17836;50.948;3.946;2024-01-11T13:35:30;32.80;;;20.17;;
31210;SDS011;17836;50.948;3.946;2024-01-11T13:37:55;38.70;;;19.48;;
31210;SDS011;17836;50.948;3.946;2024-01-11T13:40:21;33.08;;;19.90;;
31210;SDS011;17836;50.948;3.946;2024-01-11T13:42:46;31.38;;;18.50;;
31210;SDS011;17836;50.948;3.946;2024-01-11T13:45:11;30.90;;;18.03;;
31210;SDS011;17836;50.948;3.946;2024-01-11T13:47:39;29.13;;;18.35;;
31210;SDS011;17836;50.948;3.946;2024-01-11T13:50:07;34.78;;;19.60;;
31210;SDS011;17836;50.948;3.946;2024-01-11T13:52:32;27.08;;;16.98;;
31210;SDS011;17836;50.948;3.946;2024-01-11T13:54:58;32.50;;;18.97;;
31210;SDS011;17836;50.948;3.946;2024-01-11T13:57:23;30.83;;;18.23;;
31210;SDS011;17836;50.948;3.946;2024-01-11T13:59:48;30.90;;;18.55;;
31210;SDS011;17836;50.948;3.946;2024-01-11T14:02:14;28.33;;;17.45;;
31210;SDS011;17836;50.948;3.946;2024-01-11T14:04:39;31.88;;;18.70;;
31210;SDS011;17836;50.948;3.946;2024-01-11T14:07:05;31.70;;;17.65;;
31210;SDS011;17836;50.948;3.946;2024-01-11T14:09:30;31.55;;;17.52;;
31210;SDS011;17836;50.948;3.946;2024-01-11T14:11:55;30.30;;;17.02;;
31210;SDS011;17836;50.948;3.946;2024-01-11T14:14:21;29.20;;;16.50;;
31210;SDS011;17836;50.948;3.946;2024-01-11T14:16:46;28.00;;;17.05;;
31210;SDS011;17836;50.948;3.946;2024-01-11T14:19:16;30.33;;;17.13;;
31210;SDS011;17836;50.948;3.946;2024-01-11T14:21:41;33.33;;;17.58;;
31210;SDS011;17836;50.948;3.946;2024-01-11T14:24:07;30.40;;;17.13;;
31210;SDS011;17836;50.948;3.946;2024-01-11T14:26:32;31.27;;;16.50;;
31210;SDS011;17836;50.948;3.946;2024-01-11T14:28:58;31.02;;;18.20;;